sensor_id;sensor_type;location;lat;lon;timestamp;P1;durP1;ratioP1;P2;durP2;ratioP2
11425;SDS011;5769;47.998;7.788;2022-09-20T00:01:01;124.40;;;29.50;;
11425;SDS011;5769;47.998;7.788;2022-09-20T00:03:30;124.60;;;29.60;;
11425;SDS011;5769;47.998;7.788;2022-09-20T00:05:59;125.03;;;30.23;;
11425;SDS011;5769;47.998;7.788;2022-09-20T00:08:27;124.33;;;29.50;;
11425;SDS011;5769;47.998;7.788;2022-09-20T00:10:56;124.53;;;29.60;;
11425;SDS011;5769;47.998;7.788;2022-09-20T00:13:25;124.73;;;29.50;;
11425;SDS011;5769;47.998;7.788;2022-09-20T00:15:53;125.20;;;29.50;;
11425;SDS011;5769;47.998;7.788;2022-09-20T00:18:20;124.90;;;29.50;;
11425;SDS011;5769;47.998;7.788;2022-09-20T00:20:47;125.17;;;29.60;;
11425;SDS011;5769;47.998;7.788;2022-09-20T00:23:16;124.70;;;29.43;;
11425;SDS011;5769;47.998;7.788;2022-09-20T00:25:43;124.67;;;29.60;;
11425;SDS011;5769;47.998;7.788;2022-09-20T00:28:10;124.37;;;29.40;;
11425;SDS011;5769;47.998;7.788;2022-09-20T00:30:37;124.50;;;29.60;;
11425;SDS011;5769;47.998;7.788;2022-09-20T00:33:05;124.50;;;29.60;;
11425;SDS011;5769;47.998;7.788;2022-09-20T00:35:32;124.20;;;29.40;;
11425;SDS011;5769;47.998;7.788;2022-09-20T00:37:58;124.20;;;29.40;;
11425;SDS011;5769;47.998;7.788;2022-09-20T00:40:25;124.37;;;29.50;;
11425;SDS011;5769;47.998;7.788;2022-09-20T00:42:53;124.33;;;29.40;;
11425;SDS011;5769;47.998;7.788;2022-09-20T00:45:20;124.47;;;29.50;;
11425;SDS011;5769;47.998;7.788;2022-09-20T00:47:49;124.37;;;29.60;;
11425;SDS011;5769;47.998;7.788;2022-09-20T00:50:33;124.53;;;29.40;;
11425;SDS011;5769;47.998;7.788;2022-09-20T00:53:03;124.67;;;29.40;;
11425;SDS011;5769;47.998;7.788;2022-09-20T00:55:35;124.53;;;29.57;;
11425;SDS011;5769;47.998;7.788;2022-09-20T00:58:05;124.43;;;29.60;;
11425;SDS011;5769;47.998;7.788;2022-09-20T01:00:33;124.50;;;29.53;;
11425;SDS011;5769;47.998;7.788;2022-09-20T01:03:01;124.47;;;29.60;;
11425;SDS011;5769;47.998;7.788;2022-09-20T01:05:32;124.47;;;29.50;;
11425;SDS011;5769;47.998;7.788;2022-09-20T01:08:00;125.07;;;29.57;;
11425;SDS011;5769;47.998;7.788;2022-09-20T01:10:28;125.33;;;29.70;;
11425;SDS011;5769;47.998;7.788;2022-09-20T01:12:55;125.07;;;29.70;;
11425;SDS011;5769;47.998;7.788;2022-09-20T01:15:22;124.67;;;29.67;;
11425;SDS011;5769;47.998;7.788;2022-09-20T01:17:53;124.63;;;29.50;;
11425;SDS011;5769;47.998;7.788;2022-09-20T01:20:23;124.67;;;29.50;;
11425;SDS011;5769;47.998;7.788;2022-09-20T01:22:56;124.80;;;29.40;;
11425;SDS011;5769;47.998;7.788;2022-09-20T01:25:51;124.87;;;29.40;;
11425;SDS011;5769;47.998;7.788;2022-09-20T01:28:31;124.67;;;29.60;;
11425;SDS011;5769;47.998;7.788;2022-09-20T01:31:01;124.77;;;29.57;;
11425;SDS011;5769;47.998;7.788;2022-09-20T01:33:34;124.60;;;29.30;;
11425;SDS011;5769;47.998;7.788;2022-09-20T01:36:06;124.57;;;29.50;;
11425;SDS011;5769;47.998;7.788;2022-09-20T01:38:39;124.53;;;29.50;;
11425;SDS011;5769;47.998;7.788;2022-09-20T01:41:11;124.47;;;29.60;;
11425;SDS011;5769;47.998;7.788;2022-09-20T01:43:47;124.60;;;29.50;;
11425;SDS011;5769;47.998;7.788;2022-09-20T01:46:21;124.70;;;29.50;;
11425;SDS011;5769;47.998;7.788;2022-09-20T01:48:55;124.50;;;29.60;;
11425;SDS011;5769;47.998;7.788;2022-09-20T01:51:38;124.67;;;29.60;;
11425;SDS011;5769;47.998;7.788;2022-09-20T02:00:50;124.60;;;29.60;;
11425;SDS011;5769;47.998;7.788;2022-09-20T02:06:48;125.27;;;29.60;;
11425;SDS011;5769;47.998;7.788;2022-09-20T02:09:43;125.67;;;29.60;;
11425;SDS011;5769;47.998;7.788;2022-09-20T02:12:35;125.27;;;29.60;;
11425;SDS011;5769;47.998;7.788;2022-09-20T02:15:16;125.17;;;29.50;;
11425;SDS011;5769;47.998;7.788;2022-09-20T02:18:02;125.80;;;29.70;;
11425;SDS011;5769;47.998;7.788;2022-09-20T02:20:37;125.53;;;29.50;;
11425;SDS011;5769;47.998;7.788;2022-09-20T02:23:16;125.90;;;29.60;;
11425;SDS011;5769;47.998;7.788;2022-09-20T02:25:54;128.10;;;29.50;;
11425;SDS011;5769;47.998;7.788;2022-09-20T02:28:30;124.70;;;29.63;;
11425;SDS011;5769;47.998;7.788;2022-09-20T02:31:14;124.63;;;29.63;;
11425;SDS011;5769;47.998;7.788;2022-09-20T02:33:55;124.27;;;29.50;;
11425;SDS011;5769;47.998;7.788;2022-09-20T02:36:32;124.37;;;29.70;;
11425;SDS011;5769;47.998;7.788;2022-09-20T02:39:06;124.47;;;29.67;;
11425;SDS011;5769;47.998;7.788;2022-09-20T02:41:45;124.50;;;29.50;;
11425;SDS011;5769;47.998;7.788;2022-09-20T02:44:21;124.60;;;29.50;;
11425;SDS011;5769;47.998;7.788;2022-09-20T02:46:56;124.40;;;29.43;;
11425;SDS011;5769;47.998;7.788;2022-09-20T02:49:33;124.33;;;29.33;;
11425;SDS011;5769;47.998;7.788;2022-09-20T02:52:12;124.17;;;29.50;;
11425;SDS011;5769;47.998;7.788;2022-09-20T02:54:49;124.47;;;29.60;;
11425;SDS011;5769;47.998;7.788;2022-09-20T02:57:24;124.67;;;29.50;;
11425;SDS011;5769;47.998;7.788;2022-09-20T02:59:59;124.63;;;29.70;;
11425;SDS011;5769;47.998;7.788;2022-09-20T03:02:32;124.57;;;29.43;;
11425;SDS011;5769;47.998;7.788;2022-09-20T03:05:12;124.67;;;29.70;;
11425;SDS011;5769;47.998;7.788;2022-09-20T03:07:47;124.40;;;29.40;;
11425;SDS011;5769;47.998;7.788;2022-09-20T03:10:24;124.73;;;29.70;;
11425;SDS011;5769;47.998;7.788;2022-09-20T03:12:59;124.37;;;29.53;;
11425;SDS011;5769;47.998;7.788;2022-09-20T03:15:39;124.60;;;29.40;;
11425;SDS011;5769;47.998;7.788;2022-09-20T03:18:18;125.10;;;29.60;;
11425;SDS011;5769;47.998;7.788;2022-09-20T03:20:56;124.60;;;29.40;;
11425;SDS011;5769;47.998;7.788;2022-09-20T03:23:37;124.63;;;29.50;;
11425;SDS011;5769;47.998;7.788;2022-09-20T03:26:15;124.47;;;29.60;;
11425;SDS011;5769;47.998;7.788;2022-09-20T03:28:55;124.53;;;29.50;;
11425;SDS011;5769;47.998;7.788;2022-09-20T03:31:31;124.33;;;29.40;;
11425;SDS011;5769;47.998;7.788;2022-09-20T03:34:15;124.33;;;29.50;;
11425;SDS011;5769;47.998;7.788;2022-09-20T03:36:57;124.20;;;29.50;;
11425;SDS011;5769;47.998;7.788;2022-09-20T03:39:40;124.10;;;29.37;;
11425;SDS011;5769;47.998;7.788;2022-09-20T03:42:27;124.40;;;29.60;;
11425;SDS011;5769;47.998;7.788;2022-09-20T03:45:04;124.10;;;29.40;;
11425;SDS011;5769;47.998;7.788;2022-09-20T03:48:01;124.10;;;29.50;;
11425;SDS011;5769;47.998;7.788;2022-09-20T03:50:48;124.47;;;29.60;;
11425;SDS011;5769;47.998;7.788;2022-09-20T03:53:37;124.77;;;29.60;;
11425;SDS011;5769;47.998;7.788;2022-09-20T03:56:27;124.20;;;29.40;;
11425;SDS011;5769;47.998;7.788;2022-09-20T03:59:18;124.17;;;29.53;;
11425;SDS011;5769;47.998;7.788;2022-09-20T04:02:04;124.17;;;29.50;;
11425;SDS011;5769;47.998;7.788;2022-09-20T04:04:49;123.80;;;29.50;;
11425;SDS011;5769;47.998;7.788;2022-09-20T04:07:21;123.50;;;29.50;;
11425;SDS011;5769;47.998;7.788;2022-09-20T04:10:10;123.60;;;29.40;;
11425;SDS011;5769;47.998;7.788;2022-09-20T04:12:48;123.43;;;29.30;;
11425;SDS011;5769;47.998;7.788;2022-09-20T04:15:32;123.80;;;29.70;;
11425;SDS011;5769;47.998;7.788;2022-09-20T04:18:10;123.33;;;29.40;;
11425;SDS011;5769;47.998;7.788;2022-09-20T04:20:46;123.67;;;29.50;;
11425;SDS011;5769;47.998;7.788;2022-09-20T04:23:20;123.33;;;29.40;;
11425;SDS011;5769;47.998;7.788;2022-09-20T04:25:57;123.80;;;29.60;;
11425;SDS011;5769;47.998;7.788;2022-09-20T04:28:27;123.57;;;29.33;;
11425;SDS011;5769;47.998;7.788;2022-09-20T04:31:01;123.50;;;29.40;;
11425;SDS011;5769;47.998;7.788;2022-09-20T04:33:35;123.80;;;29.57;;
11425;SDS011;5769;47.998;7.788;2022-09-20T04:36:09;123.63;;;29.50;;
11425;SDS011;5769;47.998;7.788;2022-09-20T04:38:56;123.70;;;29.40;;
11425;SDS011;5769;47.998;7.788;2022-09-20T04:41:41;123.70;;;29.50;;
11425;SDS011;5769;47.998;7.788;2022-09-20T04:47:35;123.90;;;29.40;;
11425;SDS011;5769;47.998;7.788;2022-09-20T04:50:37;123.43;;;29.30;;
11425;SDS011;5769;47.998;7.788;2022-09-20T04:53:28;123.30;;;29.40;;
11425;SDS011;5769;47.998;7.788;2022-09-20T04:56:21;123.37;;;29.50;;
11425;SDS011;5769;47.998;7.788;2022-09-20T04:59:05;123.67;;;29.40;;
11425;SDS011;5769;47.998;7.788;2022-09-20T05:04:51;123.47;;;29.50;;
11425;SDS011;5769;47.998;7.788;2022-09-20T05:13:43;123.97;;;29.67;;
11425;SDS011;5769;47.998;7.788;2022-09-20T05:16:24;123.97;;;29.70;;
11425;SDS011;5769;47.998;7.788;2022-09-20T05:19:09;123.83;;;29.50;;
11425;SDS011;5769;47.998;7.788;2022-09-20T05:21:53;123.57;;;29.50;;
11425;SDS011;5769;47.998;7.788;2022-09-20T05:24:38;123.97;;;29.50;;
11425;SDS011;5769;47.998;7.788;2022-09-20T05:27:25;123.37;;;29.40;;
11425;SDS011;5769;47.998;7.788;2022-09-20T05:30:01;123.63;;;29.30;;
11425;SDS011;5769;47.998;7.788;2022-09-20T05:32:34;123.97;;;29.50;;
11425;SDS011;5769;47.998;7.788;2022-09-20T05:35:06;124.00;;;29.50;;
11425;SDS011;5769;47.998;7.788;2022-09-20T05:37:45;123.93;;;29.40;;
11425;SDS011;5769;47.998;7.788;2022-09-20T05:40:22;123.53;;;29.40;;
11425;SDS011;5769;47.998;7.788;2022-09-20T05:42:57;123.80;;;29.50;;
11425;SDS011;5769;47.998;7.788;2022-09-20T05:45:46;124.10;;;29.53;;
11425;SDS011;5769;47.998;7.788;2022-09-20T05:48:25;123.17;;;29.40;;
11425;SDS011;5769;47.998;7.788;2022-09-20T05:51:04;123.27;;;29.40;;
11425;SDS011;5769;47.998;7.788;2022-09-20T05:53:49;123.37;;;29.40;;
11425;SDS011;5769;47.998;7.788;2022-09-20T05:56:54;123.37;;;29.30;;
11425;SDS011;5769;47.998;7.788;2022-09-20T05:59:36;123.33;;;29.50;;
11425;SDS011;5769;47.998;7.788;2022-09-20T06:02:21;123.70;;;29.40;;
11425;SDS011;5769;47.998;7.788;2022-09-20T06:05:00;124.07;;;29.50;;
11425;SDS011;5769;47.998;7.788;2022-09-20T06:07:33;123.67;;;29.50;;
11425;SDS011;5769;47.998;7.788;2022-09-20T06:10:16;123.93;;;29.40;;
11425;SDS011;5769;47.998;7.788;2022-09-20T06:12:57;123.37;;;29.30;;
11425;SDS011;5769;47.998;7.788;2022-09-20T06:15:31;124.20;;;29.60;;
11425;SDS011;5769;47.998;7.788;2022-09-20T06:18:12;124.60;;;29.40;;
11425;SDS011;5769;47.998;7.788;2022-09-20T06:20:49;124.43;;;29.50;;
11425;SDS011;5769;47.998;7.788;2022-09-20T06:23:22;124.17;;;29.60;;
11425;SDS011;5769;47.998;7.788;2022-09-20T06:25:50;123.97;;;29.40;;
11425;SDS011;5769;47.998;7.788;2022-09-20T06:28:22;124.37;;;29.60;;
11425;SDS011;5769;47.998;7.788;2022-09-20T06:30:52;124.23;;;29.50;;
11425;SDS011;5769;47.998;7.788;2022-09-20T06:33:21;124.20;;;29.40;;
11425;SDS011;5769;47.998;7.788;2022-09-20T06:35:52;124.37;;;29.60;;
11425;SDS011;5769;47.998;7.788;2022-09-20T06:38:27;123.97;;;29.40;;
11425;SDS011;5769;47.998;7.788;2022-09-20T06:41:24;123.47;;;29.40;;
11425;SDS011;5769;47.998;7.788;2022-09-20T06:43:52;123.50;;;29.50;;
11425;SDS011;5769;47.998;7.788;2022-09-20T06:46:22;123.93;;;29.40;;
11425;SDS011;5769;47.998;7.788;2022-09-20T06:48:49;123.97;;;29.37;;
11425;SDS011;5769;47.998;7.788;2022-09-20T06:51:17;123.97;;;29.40;;
11425;SDS011;5769;47.998;7.788;2022-09-20T06:53:44;124.30;;;29.40;;
11425;SDS011;5769;47.998;7.788;2022-09-20T06:56:13;124.53;;;29.40;;
11425;SDS011;5769;47.998;7.788;2022-09-20T06:58:43;124.30;;;29.50;;
11425;SDS011;5769;47.998;7.788;2022-09-20T07:01:10;124.57;;;29.60;;
11425;SDS011;5769;47.998;7.788;2022-09-20T07:03:37;124.70;;;29.50;;
11425;SDS011;5769;47.998;7.788;2022-09-20T07:06:04;124.37;;;29.50;;
11425;SDS011;5769;47.998;7.788;2022-09-20T07:08:33;124.43;;;29.50;;
11425;SDS011;5769;47.998;7.788;2022-09-20T07:11:04;124.40;;;29.50;;
11425;SDS011;5769;47.998;7.788;2022-09-20T07:13:33;124.00;;;29.37;;
11425;SDS011;5769;47.998;7.788;2022-09-20T07:16:00;124.27;;;29.40;;
11425;SDS011;5769;47.998;7.788;2022-09-20T07:18:28;124.30;;;29.60;;
11425;SDS011;5769;47.998;7.788;2022-09-20T07:20:57;123.77;;;29.40;;
11425;SDS011;5769;47.998;7.788;2022-09-20T07:23:24;124.47;;;29.30;;
11425;SDS011;5769;47.998;7.788;2022-09-20T07:25:54;124.53;;;29.30;;
11425;SDS011;5769;47.998;7.788;2022-09-20T07:28:22;123.73;;;29.33;;
11425;SDS011;5769;47.998;7.788;2022-09-20T07:30:49;124.07;;;29.50;;
11425;SDS011;5769;47.998;7.788;2022-09-20T07:33:16;124.27;;;29.60;;
11425;SDS011;5769;47.998;7.788;2022-09-20T07:35:45;123.63;;;29.20;;
11425;SDS011;5769;47.998;7.788;2022-09-20T07:38:13;123.67;;;29.57;;
11425;SDS011;5769;47.998;7.788;2022-09-20T07:40:41;123.63;;;29.30;;
11425;SDS011;5769;47.998;7.788;2022-09-20T07:43:10;124.13;;;29.30;;
11425;SDS011;5769;47.998;7.788;2022-09-20T07:45:37;124.00;;;29.60;;
11425;SDS011;5769;47.998;7.788;2022-09-20T07:48:04;124.30;;;29.60;;
11425;SDS011;5769;47.998;7.788;2022-09-20T07:50:34;124.40;;;29.50;;
11425;SDS011;5769;47.998;7.788;2022-09-20T07:53:01;124.47;;;29.40;;
11425;SDS011;5769;47.998;7.788;2022-09-20T07:55:28;124.67;;;29.60;;
11425;SDS011;5769;47.998;7.788;2022-09-20T07:57:56;124.43;;;29.40;;
11425;SDS011;5769;47.998;7.788;2022-09-20T08:00:24;124.73;;;29.47;;
11425;SDS011;5769;47.998;7.788;2022-09-20T08:02:56;124.67;;;29.50;;
11425;SDS011;5769;47.998;7.788;2022-09-20T08:05:24;124.33;;;29.50;;
11425;SDS011;5769;47.998;7.788;2022-09-20T08:07:51;124.53;;;29.60;;
11425;SDS011;5769;47.998;7.788;2022-09-20T08:10:18;124.53;;;29.43;;
11425;SDS011;5769;47.998;7.788;2022-09-20T08:12:45;124.27;;;29.50;;
11425;SDS011;5769;47.998;7.788;2022-09-20T08:15:12;124.57;;;29.50;;
11425;SDS011;5769;47.998;7.788;2022-09-20T08:17:40;124.57;;;29.50;;
11425;SDS011;5769;47.998;7.788;2022-09-20T08:20:07;124.63;;;29.60;;
11425;SDS011;5769;47.998;7.788;2022-09-20T08:22:34;124.70;;;29.60;;
11425;SDS011;5769;47.998;7.788;2022-09-20T08:25:03;124.43;;;29.40;;
11425;SDS011;5769;47.998;7.788;2022-09-20T08:27:31;124.43;;;29.60;;
11425;SDS011;5769;47.998;7.788;2022-09-20T08:29:57;124.63;;;29.40;;
11425;SDS011;5769;47.998;7.788;2022-09-20T08:32:25;124.87;;;29.40;;
11425;SDS011;5769;47.998;7.788;2022-09-20T08:34:53;125.23;;;29.60;;
11425;SDS011;5769;47.998;7.788;2022-09-20T08:37:20;125.77;;;29.70;;
11425;SDS011;5769;47.998;7.788;2022-09-20T08:39:46;125.50;;;29.40;;
11425;SDS011;5769;47.998;7.788;2022-09-20T08:42:16;125.90;;;29.60;;
11425;SDS011;5769;47.998;7.788;2022-09-20T08:44:52;124.97;;;29.60;;
11425;SDS011;5769;47.998;7.788;2022-09-20T08:47:22;124.97;;;29.50;;
11425;SDS011;5769;47.998;7.788;2022-09-20T08:49:53;125.33;;;29.50;;
11425;SDS011;5769;47.998;7.788;2022-09-20T08:52:22;125.47;;;29.70;;
11425;SDS011;5769;47.998;7.788;2022-09-20T08:54:54;125.63;;;29.47;;
11425;SDS011;5769;47.998;7.788;2022-09-20T08:57:23;100.83;;;23.83;;
11425;SDS011;5769;47.998;7.788;2022-09-20T08:59:56;87.20;;;21.57;;
11425;SDS011;5769;47.998;7.788;2022-09-20T09:02:23;88.80;;;21.33;;
11425;SDS011;5769;47.998;7.788;2022-09-20T09:04:50;90.47;;;21.50;;
11425;SDS011;5769;47.998;7.788;2022-09-20T09:07:19;87.87;;;21.10;;
11425;SDS011;5769;47.998;7.788;2022-09-20T09:09:49;91.33;;;21.80;;
11425;SDS011;5769;47.998;7.788;2022-09-20T09:12:20;92.23;;;21.93;;
11425;SDS011;5769;47.998;7.788;2022-09-20T09:14:49;90.60;;;21.67;;
11425;SDS011;5769;47.998;7.788;2022-09-20T09:17:19;91.50;;;21.83;;
11425;SDS011;5769;47.998;7.788;2022-09-20T09:19:48;90.43;;;21.70;;
11425;SDS011;5769;47.998;7.788;2022-09-20T09:22:19;90.67;;;21.77;;
11425;SDS011;5769;47.998;7.788;2022-09-20T09:25:06;90.07;;;21.50;;
11425;SDS011;5769;47.998;7.788;2022-09-20T09:27:52;91.33;;;21.80;;
11425;SDS011;5769;47.998;7.788;2022-09-20T09:30:21;91.23;;;22.00;;
11425;SDS011;5769;47.998;7.788;2022-09-20T09:32:51;89.13;;;21.57;;
11425;SDS011;5769;47.998;7.788;2022-09-20T09:35:23;76.30;;;19.13;;
11425;SDS011;5769;47.998;7.788;2022-09-20T09:37:55;91.10;;;21.60;;
11425;SDS011;5769;47.998;7.788;2022-09-20T09:40:24;90.27;;;21.23;;
11425;SDS011;5769;47.998;7.788;2022-09-20T09:42:52;91.10;;;21.57;;
11425;SDS011;5769;47.998;7.788;2022-09-20T09:45:25;89.83;;;21.33;;
11425;SDS011;5769;47.998;7.788;2022-09-20T09:47:54;90.57;;;21.50;;
11425;SDS011;5769;47.998;7.788;2022-09-20T09:50:23;89.13;;;21.10;;
11425;SDS011;5769;47.998;7.788;2022-09-20T09:53:00;93.07;;;22.10;;
11425;SDS011;5769;47.998;7.788;2022-09-20T09:55:44;89.90;;;21.37;;
11425;SDS011;5769;47.998;7.788;2022-09-20T09:58:34;90.10;;;21.43;;
11425;SDS011;5769;47.998;7.788;2022-09-20T10:01:12;89.63;;;21.40;;
11425;SDS011;5769;47.998;7.788;2022-09-20T10:03:51;87.20;;;20.97;;
11425;SDS011;5769;47.998;7.788;2022-09-20T10:06:25;88.23;;;21.20;;
11425;SDS011;5769;47.998;7.788;2022-09-20T10:09:04;86.03;;;20.87;;
11425;SDS011;5769;47.998;7.788;2022-09-20T10:11:49;87.33;;;21.00;;
11425;SDS011;5769;47.998;7.788;2022-09-20T10:14:34;89.77;;;21.40;;
11425;SDS011;5769;47.998;7.788;2022-09-20T10:17:26;89.63;;;21.37;;
11425;SDS011;5769;47.998;7.788;2022-09-20T10:20:08;88.40;;;21.10;;
11425;SDS011;5769;47.998;7.788;2022-09-20T10:22:53;86.27;;;20.77;;
11425;SDS011;5769;47.998;7.788;2022-09-20T10:25:30;91.17;;;21.60;;
11425;SDS011;5769;47.998;7.788;2022-09-20T10:28:06;87.13;;;21.03;;
11425;SDS011;5769;47.998;7.788;2022-09-20T10:30:46;86.33;;;20.83;;
11425;SDS011;5769;47.998;7.788;2022-09-20T10:33:25;86.20;;;21.07;;
11425;SDS011;5769;47.998;7.788;2022-09-20T10:36:02;88.37;;;21.67;;
11425;SDS011;5769;47.998;7.788;2022-09-20T10:38:40;85.87;;;21.27;;
11425;SDS011;5769;47.998;7.788;2022-09-20T10:41:13;88.17;;;21.20;;
11425;SDS011;5769;47.998;7.788;2022-09-20T10:44:06;87.23;;;20.93;;
11425;SDS011;5769;47.998;7.788;2022-09-20T10:46:40;88.10;;;21.17;;
11425;SDS011;5769;47.998;7.788;2022-09-20T10:49:19;86.33;;;20.87;;
11425;SDS011;5769;47.998;7.788;2022-09-20T10:51:53;87.73;;;21.20;;
11425;SDS011;5769;47.998;7.788;2022-09-20T10:54:45;87.23;;;21.00;;
11425;SDS011;5769;47.998;7.788;2022-09-20T10:57:33;86.17;;;20.87;;
11425;SDS011;5769;47.998;7.788;2022-09-20T11:00:17;84.10;;;20.67;;
11425;SDS011;5769;47.998;7.788;2022-09-20T11:02:50;87.63;;;21.07;;
11425;SDS011;5769;47.998;7.788;2022-09-20T11:05:32;87.67;;;21.17;;
11425;SDS011;5769;47.998;7.788;2022-09-20T11:08:08;84.37;;;20.30;;
11425;SDS011;5769;47.998;7.788;2022-09-20T11:10:39;84.93;;;20.60;;
11425;SDS011;5769;47.998;7.788;2022-09-20T11:13:13;87.93;;;21.57;;
11425;SDS011;5769;47.998;7.788;2022-09-20T11:15:48;87.27;;;21.00;;
11425;SDS011;5769;47.998;7.788;2022-09-20T11:18:21;88.13;;;21.30;;
11425;SDS011;5769;47.998;7.788;2022-09-20T11:20:52;86.33;;;20.77;;
11425;SDS011;5769;47.998;7.788;2022-09-20T11:23:27;87.80;;;21.17;;
11425;SDS011;5769;47.998;7.788;2022-09-20T11:26:04;87.30;;;21.27;;
11425;SDS011;5769;47.998;7.788;2022-09-20T11:28:37;86.87;;;21.10;;
11425;SDS011;5769;47.998;7.788;2022-09-20T11:31:09;83.80;;;20.70;;
11425;SDS011;5769;47.998;7.788;2022-09-20T11:33:43;86.70;;;20.93;;
11425;SDS011;5769;47.998;7.788;2022-09-20T11:36:14;87.27;;;21.30;;
11425;SDS011;5769;47.998;7.788;2022-09-20T11:38:45;87.57;;;21.33;;
11425;SDS011;5769;47.998;7.788;2022-09-20T11:41:17;89.20;;;21.40;;
11425;SDS011;5769;47.998;7.788;2022-09-20T11:43:48;89.03;;;21.27;;
11425;SDS011;5769;47.998;7.788;2022-09-20T11:46:18;87.43;;;21.03;;
11425;SDS011;5769;47.998;7.788;2022-09-20T11:48:50;88.10;;;21.50;;
11425;SDS011;5769;47.998;7.788;2022-09-20T11:51:29;86.23;;;20.83;;
11425;SDS011;5769;47.998;7.788;2022-09-20T11:57:04;84.83;;;20.57;;
11425;SDS011;5769;47.998;7.788;2022-09-20T11:59:33;87.30;;;21.03;;
11425;SDS011;5769;47.998;7.788;2022-09-20T12:02:02;87.43;;;21.07;;
11425;SDS011;5769;47.998;7.788;2022-09-20T12:04:37;84.40;;;20.50;;
11425;SDS011;5769;47.998;7.788;2022-09-20T12:07:14;86.80;;;21.30;;
11425;SDS011;5769;47.998;7.788;2022-09-20T12:09:44;85.53;;;20.67;;
11425;SDS011;5769;47.998;7.788;2022-09-20T12:12:24;85.83;;;21.13;;
11425;SDS011;5769;47.998;7.788;2022-09-20T12:14:58;86.27;;;20.80;;
11425;SDS011;5769;47.998;7.788;2022-09-20T12:26:41;87.57;;;21.03;;
11425;SDS011;5769;47.998;7.788;2022-09-20T12:38:27;83.70;;;20.10;;
11425;SDS011;5769;47.998;7.788;2022-09-20T12:41:08;81.50;;;19.80;;
11425;SDS011;5769;47.998;7.788;2022-09-20T12:43:51;86.87;;;21.33;;
11425;SDS011;5769;47.998;7.788;2022-09-20T12:46:40;85.50;;;20.80;;
11425;SDS011;5769;47.998;7.788;2022-09-20T12:49:25;86.67;;;21.27;;
11425;SDS011;5769;47.998;7.788;2022-09-20T12:52:21;83.00;;;20.37;;
11425;SDS011;5769;47.998;7.788;2022-09-20T12:55:07;84.50;;;20.90;;
11425;SDS011;5769;47.998;7.788;2022-09-20T12:57:36;83.47;;;20.50;;
11425;SDS011;5769;47.998;7.788;2022-09-20T13:00:05;84.83;;;20.37;;
11425;SDS011;5769;47.998;7.788;2022-09-20T13:02:40;80.17;;;19.83;;
11425;SDS011;5769;47.998;7.788;2022-09-20T13:05:32;85.80;;;21.00;;
11425;SDS011;5769;47.998;7.788;2022-09-20T13:08:03;73.90;;;18.13;;
11425;SDS011;5769;47.998;7.788;2022-09-20T13:10:39;86.37;;;20.43;;
11425;SDS011;5769;47.998;7.788;2022-09-20T13:13:14;105.90;;;24.80;;
11425;SDS011;5769;47.998;7.788;2022-09-20T13:15:58;122.90;;;28.43;;
11425;SDS011;5769;47.998;7.788;2022-09-20T13:18:29;113.90;;;26.63;;
11425;SDS011;5769;47.998;7.788;2022-09-20T13:20:58;97.50;;;23.13;;
11425;SDS011;5769;47.998;7.788;2022-09-20T13:23:42;126.60;;;29.33;;
11425;SDS011;5769;47.998;7.788;2022-09-20T13:26:13;123.27;;;28.70;;
11425;SDS011;5769;47.998;7.788;2022-09-20T13:28:46;124.30;;;28.93;;
11425;SDS011;5769;47.998;7.788;2022-09-20T13:31:27;123.80;;;28.73;;
11425;SDS011;5769;47.998;7.788;2022-09-20T13:36:39;124.33;;;28.90;;
11425;SDS011;5769;47.998;7.788;2022-09-20T13:39:07;125.47;;;29.20;;
11425;SDS011;5769;47.998;7.788;2022-09-20T13:41:34;122.37;;;28.53;;
11425;SDS011;5769;47.998;7.788;2022-09-20T13:44:01;123.93;;;28.77;;
11425;SDS011;5769;47.998;7.788;2022-09-20T13:46:29;102.30;;;23.93;;
11425;SDS011;5769;47.998;7.788;2022-09-20T13:48:58;87.80;;;21.33;;
11425;SDS011;5769;47.998;7.788;2022-09-20T13:51:38;125.17;;;29.00;;
11425;SDS011;5769;47.998;7.788;2022-09-20T13:54:16;124.40;;;28.90;;
11425;SDS011;5769;47.998;7.788;2022-09-20T13:56:45;123.77;;;28.93;;
11425;SDS011;5769;47.998;7.788;2022-09-20T13:59:12;103.07;;;24.50;;
11425;SDS011;5769;47.998;7.788;2022-09-20T14:01:41;123.57;;;28.80;;
11425;SDS011;5769;47.998;7.788;2022-09-20T14:04:14;126.77;;;29.60;;
11425;SDS011;5769;47.998;7.788;2022-09-20T14:06:45;124.00;;;28.93;;
11425;SDS011;5769;47.998;7.788;2022-09-20T14:09:16;108.57;;;25.50;;
11425;SDS011;5769;47.998;7.788;2022-09-20T14:11:46;93.63;;;22.60;;
11425;SDS011;5769;47.998;7.788;2022-09-20T14:14:13;86.73;;;20.70;;
11425;SDS011;5769;47.998;7.788;2022-09-20T14:16:41;124.50;;;29.17;;
11425;SDS011;5769;47.998;7.788;2022-09-20T14:19:10;124.93;;;29.07;;
11425;SDS011;5769;47.998;7.788;2022-09-20T14:21:40;125.33;;;29.20;;
11425;SDS011;5769;47.998;7.788;2022-09-20T14:24:22;124.23;;;28.90;;
11425;SDS011;5769;47.998;7.788;2022-09-20T14:27:00;125.97;;;29.27;;
11425;SDS011;5769;47.998;7.788;2022-09-20T14:29:39;124.30;;;28.97;;
11425;SDS011;5769;47.998;7.788;2022-09-20T14:32:09;124.93;;;29.00;;
11425;SDS011;5769;47.998;7.788;2022-09-20T14:34:52;126.03;;;29.27;;
11425;SDS011;5769;47.998;7.788;2022-09-20T14:37:26;120.27;;;27.97;;
11425;SDS011;5769;47.998;7.788;2022-09-20T14:39:56;124.27;;;29.00;;
11425;SDS011;5769;47.998;7.788;2022-09-20T14:42:26;82.63;;;19.77;;
11425;SDS011;5769;47.998;7.788;2022-09-20T14:44:55;126.20;;;29.40;;
11425;SDS011;5769;47.998;7.788;2022-09-20T14:47:24;126.10;;;29.50;;
11425;SDS011;5769;47.998;7.788;2022-09-20T14:49:52;126.17;;;29.40;;
11425;SDS011;5769;47.998;7.788;2022-09-20T14:52:28;126.10;;;29.30;;
11425;SDS011;5769;47.998;7.788;2022-09-20T14:55:13;126.20;;;29.50;;
11425;SDS011;5769;47.998;7.788;2022-09-20T14:57:44;125.70;;;29.40;;
11425;SDS011;5769;47.998;7.788;2022-09-20T15:00:12;126.00;;;29.37;;
11425;SDS011;5769;47.998;7.788;2022-09-20T15:02:40;126.10;;;29.37;;
11425;SDS011;5769;47.998;7.788;2022-09-20T15:05:15;125.60;;;29.43;;
11425;SDS011;5769;47.998;7.788;2022-09-20T15:07:43;126.47;;;29.60;;
11425;SDS011;5769;47.998;7.788;2022-09-20T15:10:12;126.40;;;29.50;;
11425;SDS011;5769;47.998;7.788;2022-09-20T15:12:39;125.60;;;29.47;;
11425;SDS011;5769;47.998;7.788;2022-09-20T15:15:10;125.70;;;29.23;;
11425;SDS011;5769;47.998;7.788;2022-09-20T15:17:39;125.87;;;29.50;;
11425;SDS011;5769;47.998;7.788;2022-09-20T15:20:11;125.40;;;29.40;;
11425;SDS011;5769;47.998;7.788;2022-09-20T15:22:40;125.80;;;29.50;;
11425;SDS011;5769;47.998;7.788;2022-09-20T15:25:11;125.77;;;29.50;;
11425;SDS011;5769;47.998;7.788;2022-09-20T15:27:40;125.97;;;29.23;;
11425;SDS011;5769;47.998;7.788;2022-09-20T15:30:09;115.17;;;26.73;;
11425;SDS011;5769;47.998;7.788;2022-09-20T15:32:36;126.67;;;29.10;;
11425;SDS011;5769;47.998;7.788;2022-09-20T15:35:04;126.80;;;29.40;;
11425;SDS011;5769;47.998;7.788;2022-09-20T15:37:31;126.77;;;29.33;;
11425;SDS011;5769;47.998;7.788;2022-09-20T15:39:58;123.77;;;28.83;;
11425;SDS011;5769;47.998;7.788;2022-09-20T15:42:27;124.90;;;28.90;;
11425;SDS011;5769;47.998;7.788;2022-09-20T15:44:54;126.50;;;29.40;;
11425;SDS011;5769;47.998;7.788;2022-09-20T15:47:21;119.93;;;27.93;;
11425;SDS011;5769;47.998;7.788;2022-09-20T15:49:48;89.47;;;21.00;;
11425;SDS011;5769;47.998;7.788;2022-09-20T15:52:16;90.30;;;21.40;;
11425;SDS011;5769;47.998;7.788;2022-09-20T15:54:49;97.30;;;22.77;;